createdAt,value
2018-12-14T00:00:35.585Z,0.70
2018-12-14T00:03:03.955Z,0.70
2018-12-14T00:05:36.639Z,0.70
2018-12-14T00:08:04.913Z,0.70
2018-12-14T00:10:33.343Z,0.60
2018-12-14T00:13:01.659Z,0.60
2018-12-14T00:15:30.032Z,0.50
2018-12-14T00:17:58.336Z,0.50
2018-12-14T00:20:26.611Z,0.50
2018-12-14T00:22:54.927Z,0.50
2018-12-14T00:25:23.164Z,0.40
2018-12-14T00:27:51.586Z,0.40
2018-12-14T00:30:19.932Z,0.40
2018-12-14T00:32:48.195Z,0.40
2018-12-14T00:35:20.479Z,0.40
2018-12-14T00:37:48.787Z,0.40
2018-12-14T00:40:17.128Z,0.40
2018-12-14T00:42:45.411Z,0.40
2018-12-14T00:45:13.700Z,0.40
2018-12-14T00:47:42.680Z,0.40
2018-12-14T00:50:11.173Z,0.40
2018-12-14T00:52:39.953Z,0.40
2018-12-14T00:55:08.327Z,0.30
2018-12-14T00:57:36.620Z,0.40
2018-12-14T01:00:06.022Z,0.30
2018-12-14T01:02:34.378Z,0.30
2018-12-14T01:05:02.866Z,0.30
2018-12-14T01:07:31.159Z,0.30
2018-12-14T01:10:00.539Z,0.30
2018-12-14T01:12:28.831Z,0.30
2018-12-14T01:14:57.179Z,0.30
2018-12-14T01:17:25.430Z,0.30
2018-12-14T01:19:53.750Z,0.30
2018-12-14T01:22:22.022Z,0.30
2018-12-14T01:24:50.302Z,0.30
2018-12-14T01:27:18.743Z,0.30
2018-12-14T01:29:47.097Z,0.20
2018-12-14T01:32:15.359Z,0.30
2018-12-14T01:34:43.626Z,0.30
2018-12-14T01:37:12.028Z,0.30
2018-12-14T01:39:40.339Z,0.30
2018-12-14T01:42:08.618Z,0.30
2018-12-14T01:44:36.913Z,0.30
2018-12-14T01:47:05.195Z,0.30
2018-12-14T01:49:33.471Z,0.30
2018-12-14T01:58:01.071Z,0.20
2018-12-14T02:00:51.481Z,0.20
2018-12-14T02:03:19.852Z,0.20
2018-12-14T02:05:48.218Z,0.20
2018-12-14T02:08:16.579Z,0.20
2018-12-14T02:10:44.996Z,0.20
2018-12-14T02:16:12.630Z,0.10
2018-12-14T02:21:36.979Z,0.10
2018-12-14T02:24:10.828Z,0.10
2018-12-14T02:26:39.128Z,0.10
2018-12-14T02:29:07.335Z,0.00
2018-12-14T02:31:35.539Z,0.00
2018-12-14T02:34:03.822Z,0.00
2018-12-14T02:36:32.032Z,0.00
2018-12-14T02:39:00.299Z,0.00
2018-12-14T02:41:28.567Z,0.00
2018-12-14T02:43:56.780Z,-0.10
2018-12-14T02:46:24.980Z,0.00
2018-12-14T02:48:53.184Z,-0.10
2018-12-14T02:51:21.455Z,-0.10
2018-12-14T02:53:49.626Z,-0.20
2018-12-14T02:56:17.816Z,-0.20
2018-12-14T02:58:46.040Z,-0.20
2018-12-14T03:01:14.504Z,-0.20
2018-12-14T03:03:42.817Z,-0.10
2018-12-14T03:06:11.016Z,-0.10
2018-12-14T03:08:39.198Z,-0.10
2018-12-14T03:11:07.391Z,-0.20
2018-12-14T03:13:35.599Z,-0.20
2018-12-14T03:16:03.963Z,-0.20
2018-12-14T03:18:32.285Z,-0.20
2018-12-14T03:21:00.573Z,-0.20
2018-12-14T03:23:28.752Z,-0.20
2018-12-14T03:25:57.031Z,-0.20
2018-12-14T03:28:25.314Z,-0.20
2018-12-14T03:30:53.537Z,-0.10
2018-12-14T03:33:21.799Z,-0.10
2018-12-14T03:35:50.046Z,0.00
2018-12-14T03:38:18.268Z,-0.10
2018-12-14T03:43:12.413Z,-0.20
2018-12-14T03:45:40.707Z,-0.20
2018-12-14T03:48:09.091Z,-0.20
2018-12-14T03:50:37.416Z,-0.20
2018-12-14T03:53:05.628Z,-0.20
2018-12-14T03:55:34.028Z,-0.20
2018-12-14T03:58:02.252Z,-0.20
2018-12-14T04:00:30.726Z,-0.20
2018-12-14T04:02:59.215Z,-0.20
2018-12-14T04:05:27.932Z,-0.20
2018-12-14T04:07:56.159Z,-0.10
2018-12-14T04:10:24.470Z,-0.10
2018-12-14T04:12:52.751Z,0.00
2018-12-14T04:15:21.075Z,0.00
2018-12-14T04:17:49.332Z,0.00
2018-12-14T04:20:17.655Z,0.10
2018-12-14T04:22:45.955Z,0.10
2018-12-14T04:25:14.215Z,0.20
2018-12-14T04:27:42.539Z,0.20
2018-12-14T04:30:10.859Z,0.20
2018-12-14T04:32:39.068Z,0.20
2018-12-14T04:35:07.466Z,0.30
2018-12-14T04:37:35.742Z,0.40
2018-12-14T04:40:04.373Z,0.40
2018-12-14T04:44:58.433Z,0.40
2018-12-14T04:47:26.668Z,0.40
2018-12-14T04:49:55.045Z,0.40
2018-12-14T04:52:23.377Z,0.40
2018-12-14T04:54:51.706Z,0.40
2018-12-14T04:57:19.878Z,0.50
2018-12-14T04:59:48.090Z,0.50
2018-12-14T05:02:16.371Z,0.50
2018-12-14T05:04:44.631Z,0.50
2018-12-14T05:07:12.818Z,0.50
2018-12-14T05:09:41.131Z,0.50
2018-12-14T05:12:09.358Z,0.50
2018-12-14T05:14:37.852Z,0.50
2018-12-14T05:17:06.275Z,0.60
2018-12-14T05:19:34.554Z,0.50
2018-12-14T05:22:03.150Z,0.50
2018-12-14T05:24:31.340Z,0.60
2018-12-14T05:26:59.755Z,0.60
2018-12-14T05:29:28.012Z,0.60
2018-12-14T05:31:56.323Z,0.60
2018-12-14T05:34:24.543Z,0.60
2018-12-14T05:36:52.768Z,0.70
2018-12-14T05:39:21.082Z,0.70
2018-12-14T05:41:49.283Z,0.80
2018-12-14T05:44:17.476Z,0.80
2018-12-14T05:46:45.695Z,0.80
2018-12-14T05:49:14.038Z,0.80
2018-12-14T05:51:42.375Z,0.80
2018-12-14T05:54:10.703Z,0.80
2018-12-14T05:56:39.006Z,0.80
2018-12-14T05:59:07.255Z,0.80
2018-12-14T06:01:35.530Z,0.80
2018-12-14T06:04:04.042Z,0.80
2018-12-14T06:06:32.306Z,0.80
2018-12-14T06:09:00.550Z,0.80
2018-12-14T06:11:28.926Z,0.90
2018-12-14T06:13:57.355Z,0.80
2018-12-14T06:16:25.659Z,0.80
2018-12-14T06:18:53.930Z,0.80
2018-12-14T06:27:13.823Z,0.90
2018-12-14T06:29:42.045Z,0.90
2018-12-14T06:32:10.271Z,0.90
2018-12-14T06:34:38.528Z,0.90
2018-12-14T06:37:07.124Z,0.90
2018-12-14T06:39:35.354Z,0.90
2018-12-14T06:42:04.034Z,0.90
2018-12-14T06:44:32.310Z,0.90
2018-12-14T06:47:00.483Z,0.90
2018-12-14T06:49:28.692Z,0.90
2018-12-14T06:51:57.006Z,0.90
2018-12-14T06:54:25.207Z,0.90
2018-12-14T06:56:53.498Z,0.90
2018-12-14T06:59:21.819Z,0.90
2018-12-14T07:01:50.110Z,0.90
2018-12-14T07:04:18.335Z,0.90
2018-12-14T07:06:46.680Z,0.90
2018-12-14T07:18:12.591Z,0.90
2018-12-14T07:20:41.083Z,0.90
2018-12-14T07:23:14.790Z,0.90
2018-12-14T07:25:55.663Z,0.90
2018-12-14T07:28:23.866Z,1.00
2018-12-14T07:30:52.051Z,1.00
2018-12-14T07:33:20.328Z,1.00
2018-12-14T07:35:52.380Z,1.00
2018-12-14T07:38:20.578Z,1.00
2018-12-14T07:40:48.771Z,1.00
2018-12-14T07:43:16.974Z,1.00
2018-12-14T07:45:45.206Z,1.00
2018-12-14T07:48:13.384Z,1.00
2018-12-14T07:56:58.287Z,1.10
2018-12-14T07:59:26.543Z,1.10
2018-12-14T08:01:54.846Z,1.10
2018-12-14T08:04:23.178Z,1.10
2018-12-14T08:06:51.457Z,1.20
2018-12-14T08:09:19.815Z,1.20
2018-12-14T08:11:48.018Z,1.30
2018-12-14T08:14:16.195Z,1.30
2018-12-14T08:16:44.448Z,1.30
2018-12-14T08:19:12.727Z,1.30
2018-12-14T08:21:41.090Z,1.30
2018-12-14T08:24:09.279Z,1.20
2018-12-14T08:26:37.632Z,1.30
2018-12-14T08:29:05.981Z,1.30
2018-12-14T08:31:34.218Z,1.30
2018-12-14T08:34:02.519Z,1.30
2018-12-14T08:36:30.694Z,1.30
2018-12-14T08:38:58.889Z,1.40
2018-12-14T08:43:54.996Z,1.50
2018-12-14T08:46:23.242Z,1.50
2018-12-14T08:48:51.438Z,1.50
2018-12-14T08:51:19.706Z,1.50
2018-12-14T08:53:48.027Z,1.50
2018-12-14T08:56:16.202Z,1.50
2018-12-14T08:58:44.374Z,1.50
2018-12-14T09:01:12.570Z,1.50
2018-12-14T09:03:40.891Z,1.50
2018-12-14T09:06:09.059Z,1.60
2018-12-14T09:08:37.252Z,1.60
2018-12-14T09:11:05.432Z,1.60
2018-12-14T09:13:33.622Z,1.60
2018-12-14T09:16:01.802Z,1.60
2018-12-14T09:18:29.974Z,1.60
2018-12-14T09:21:01.096Z,1.70
2018-12-14T09:23:28.338Z,1.70
2018-12-14T09:25:56.655Z,1.70
2018-12-14T09:28:24.848Z,1.70
2018-12-14T09:30:53.096Z,1.70
2018-12-14T09:33:21.374Z,1.70
2018-12-14T09:35:49.706Z,1.70
2018-12-14T09:38:17.878Z,1.80
2018-12-14T09:40:46.050Z,1.70
2018-12-14T09:43:14.342Z,1.80
2018-12-14T09:45:42.511Z,1.70
2018-12-14T09:48:10.702Z,1.70
2018-12-14T09:50:38.875Z,1.60
2018-12-14T09:53:07.052Z,1.70
2018-12-14T09:55:35.296Z,1.70
2018-12-14T09:58:03.550Z,1.60
2018-12-14T10:00:31.834Z,1.70
2018-12-14T10:03:00.088Z,1.70
2018-12-14T10:05:28.265Z,1.70
2018-12-14T10:07:56.527Z,1.70
2018-12-14T10:10:24.726Z,1.60
2018-12-14T10:12:53.010Z,1.70
2018-12-14T10:15:21.186Z,1.70
2018-12-14T10:17:49.389Z,1.70
2018-12-14T10:20:17.626Z,1.60
2018-12-14T10:22:45.801Z,1.60
2018-12-14T10:25:14.187Z,1.60
2018-12-14T10:27:43.427Z,1.60
2018-12-14T10:30:11.771Z,1.60
2018-12-14T10:32:40.037Z,1.60
2018-12-14T10:35:09.134Z,1.60
2018-12-14T10:37:37.349Z,1.70
2018-12-14T10:40:06.607Z,1.70
2018-12-14T10:45:02.804Z,1.50
2018-12-14T10:47:31.062Z,1.70
2018-12-14T10:49:59.331Z,1.70
2018-12-14T10:52:27.581Z,1.70
2018-12-14T10:54:56.062Z,2.50
2018-12-14T10:57:24.222Z,1.70
2018-12-14T10:59:52.402Z,1.70
2018-12-14T11:02:20.569Z,1.70
2018-12-14T11:04:48.847Z,1.70
2018-12-14T11:07:17.020Z,1.70
2018-12-14T11:09:45.251Z,1.70
2018-12-14T11:12:13.510Z,1.60
2018-12-14T11:14:41.758Z,1.60
2018-12-14T11:17:09.950Z,1.70
2018-12-14T11:19:38.199Z,1.60
2018-12-14T11:22:06.438Z,1.70
2018-12-14T11:24:34.666Z,1.60
2018-12-14T11:27:02.894Z,1.70
2018-12-14T11:29:31.138Z,1.70
2018-12-14T11:31:59.310Z,1.60
2018-12-14T11:34:29.914Z,1.70
2018-12-14T11:36:57.638Z,1.60
2018-12-14T11:39:26.023Z,1.70
2018-12-14T11:41:54.315Z,1.70
2018-12-14T11:44:22.578Z,1.70
2018-12-14T11:46:50.839Z,1.70
2018-12-14T11:49:19.040Z,1.70
2018-12-14T11:51:47.255Z,1.70
2018-12-14T11:54:17.499Z,1.80
2018-12-14T11:56:45.811Z,1.70
2018-12-14T11:59:14.110Z,1.70
2018-12-14T12:01:42.370Z,1.80
2018-12-14T12:04:10.602Z,1.80
2018-12-14T12:06:39.411Z,1.80
2018-12-14T12:09:10.303Z,1.80
2018-12-14T12:11:38.579Z,1.80
2018-12-14T12:14:06.770Z,1.80
2018-12-14T12:16:35.114Z,1.80
2018-12-14T12:19:03.310Z,1.80
2018-12-14T12:21:31.863Z,1.80
2018-12-14T12:24:00.176Z,1.80
2018-12-14T12:26:28.360Z,1.80
2018-12-14T12:28:57.607Z,1.80
2018-12-14T12:31:25.818Z,1.90
2018-12-14T12:33:54.103Z,1.80
2018-12-14T12:36:22.436Z,1.80
2018-12-14T12:38:50.615Z,1.80
2018-12-14T12:41:18.872Z,1.80
2018-12-14T12:43:47.058Z,1.80
2018-12-14T12:46:15.515Z,1.80
2018-12-14T12:48:44.408Z,1.80
2018-12-14T12:51:12.669Z,1.80
2018-12-14T12:53:40.915Z,1.80
2018-12-14T12:56:09.139Z,1.70
2018-12-14T12:58:37.447Z,1.80
2018-12-14T13:01:05.828Z,1.80
2018-12-14T13:03:34.097Z,1.70
2018-12-14T13:06:02.379Z,1.70
2018-12-14T13:08:30.643Z,1.70
2018-12-14T13:10:59.019Z,1.80
2018-12-14T13:13:27.204Z,1.80
2018-12-14T13:15:55.402Z,1.80
2018-12-14T13:18:23.671Z,1.70
2018-12-14T13:20:51.855Z,1.70
2018-12-14T13:23:20.099Z,1.70
2018-12-14T13:25:48.314Z,1.70
2018-12-14T13:28:16.802Z,1.70
2018-12-14T13:30:45.271Z,1.70
2018-12-14T13:33:13.655Z,1.70
2018-12-14T13:35:41.919Z,1.70
2018-12-14T13:38:10.101Z,1.70
2018-12-14T13:40:38.422Z,1.70
2018-12-14T13:43:06.614Z,1.70
2018-12-14T13:45:35.068Z,1.70
2018-12-14T13:48:03.936Z,1.70
2018-12-14T13:50:32.166Z,1.80
2018-12-14T13:53:00.472Z,1.70
2018-12-14T13:55:28.659Z,1.70
2018-12-14T13:57:56.963Z,1.70
2018-12-14T14:00:25.466Z,1.80
2018-12-14T14:02:53.670Z,1.70
2018-12-14T14:05:21.859Z,1.70
2018-12-14T14:07:50.065Z,1.70
2018-12-14T14:10:18.327Z,1.70
2018-12-14T14:12:46.536Z,1.70
2018-12-14T14:15:20.697Z,1.70
2018-12-14T14:17:44.966Z,1.80
2018-12-14T14:20:13.396Z,1.80
2018-12-14T14:22:41.771Z,1.70
2018-12-14T14:25:10.131Z,1.80
2018-12-14T14:27:38.419Z,1.70
2018-12-14T14:30:07.300Z,1.70
2018-12-14T14:32:36.685Z,1.70
2018-12-14T14:35:06.146Z,1.70
2018-12-14T14:37:34.514Z,1.70
2018-12-14T14:40:04.106Z,1.70
2018-12-14T14:42:32.467Z,1.70
2018-12-14T14:45:00.973Z,1.70
2018-12-14T14:47:29.585Z,1.70
2018-12-14T14:52:58.257Z,1.70
2018-12-14T14:55:26.579Z,1.70
2018-12-14T14:57:55.014Z,1.70
2018-12-14T15:00:23.514Z,1.70
2018-12-14T15:02:51.994Z,1.70
2018-12-14T15:05:21.496Z,1.80
2018-12-14T15:07:49.772Z,1.80
2018-12-14T15:10:30.188Z,1.70
2018-12-14T15:15:58.193Z,1.70
2018-12-14T15:40:17.435Z,1.70
2018-12-14T15:42:45.730Z,1.70
2018-12-14T15:45:14.805Z,1.70
2018-12-14T15:47:43.265Z,1.20
2018-12-14T15:50:11.657Z,1.60
2018-12-14T15:52:40.198Z,1.70
2018-12-14T15:55:08.916Z,1.60
2018-12-14T15:57:37.213Z,1.70
2018-12-14T16:00:08.932Z,1.60
2018-12-14T16:02:37.733Z,1.70
2018-12-14T16:05:06.361Z,1.70
2018-12-14T16:07:34.812Z,1.70
2018-12-14T16:10:03.274Z,1.70
2018-12-14T16:12:31.491Z,1.70
2018-12-14T16:14:59.928Z,1.70
2018-12-14T16:17:28.336Z,1.70
2018-12-14T16:19:56.558Z,1.70
2018-12-14T16:22:24.980Z,1.70
2018-12-14T16:24:53.288Z,1.70
2018-12-14T16:27:21.643Z,1.70
2018-12-14T16:29:50.041Z,1.80
2018-12-14T16:32:18.249Z,1.80
2018-12-14T16:34:48.597Z,1.80
2018-12-14T16:37:17.022Z,1.80
2018-12-14T16:39:45.353Z,1.80
2018-12-14T16:42:15.187Z,1.80
2018-12-14T16:44:44.662Z,1.80
2018-12-14T16:47:12.946Z,1.90
2018-12-14T16:49:42.247Z,1.80
2018-12-14T16:52:10.620Z,1.80
2018-12-14T16:54:38.851Z,1.80
2018-12-14T17:00:15.903Z,1.80
2018-12-14T17:03:03.348Z,1.80
2018-12-14T17:05:38.484Z,1.80
2018-12-14T17:17:18.725Z,1.80
2018-12-14T17:26:00.978Z,1.80
2018-12-14T17:28:52.268Z,1.80
2018-12-14T17:34:47.430Z,1.80
2018-12-14T17:52:22.167Z,1.80
2018-12-14T17:54:54.178Z,1.80
2018-12-14T17:57:29.695Z,1.80
2018-12-14T18:00:00.148Z,1.80
2018-12-14T18:05:34.457Z,1.80
2018-12-14T18:08:06.738Z,1.80
2018-12-14T18:10:38.718Z,1.80
2018-12-14T18:13:10.659Z,1.80
2018-12-14T18:21:55.704Z,1.80
2018-12-14T18:33:42.186Z,1.80
2018-12-14T18:42:11.034Z,1.80
2018-12-14T18:47:44.055Z,1.80
2018-12-14T18:53:27.429Z,1.80
2018-12-14T18:55:58.006Z,1.80
2018-12-14T18:58:33.585Z,1.80
2018-12-14T19:10:13.005Z,1.70
2018-12-14T19:12:47.272Z,1.70
2018-12-14T19:15:15.677Z,1.70
2018-12-14T19:20:46.173Z,1.70
2018-12-14T19:23:19.625Z,1.70
2018-12-14T19:25:44.759Z,1.60
2018-12-14T19:31:13.026Z,1.60
2018-12-14T19:36:42.575Z,1.60
2018-12-14T19:39:10.893Z,1.60
2018-12-14T19:41:45.331Z,1.60
2018-12-14T19:47:22.332Z,1.60
2018-12-14T19:49:57.777Z,1.60
2018-12-14T19:52:42.008Z,1.60
2018-12-14T19:55:22.576Z,1.60
2018-12-14T19:58:00.940Z,1.60
2018-12-14T20:00:38.917Z,1.60
2018-12-14T20:03:27.086Z,1.60
2018-12-14T20:06:07.583Z,1.60
2018-12-14T20:08:44.363Z,1.60
2018-12-14T20:14:19.591Z,1.70
2018-12-14T20:20:02.950Z,1.60
2018-12-14T20:22:46.711Z,1.60
2018-12-14T20:34:20.157Z,1.60
2018-12-14T20:36:50.156Z,1.60
2018-12-14T20:39:24.824Z,1.60
2018-12-14T20:51:05.689Z,1.60
2018-12-14T20:53:37.113Z,1.60
2018-12-14T20:56:17.867Z,1.60
2018-12-14T20:58:56.260Z,1.50
2018-12-14T21:01:43.672Z,1.50
2018-12-14T21:07:16.758Z,1.60
2018-12-14T21:09:48.795Z,1.60
2018-12-14T21:12:23.368Z,1.60
2018-12-14T21:15:07.580Z,1.50
2018-12-14T21:17:42.474Z,1.60
2018-12-14T21:20:14.695Z,1.60
2018-12-14T21:22:46.479Z,1.50
2018-12-14T21:25:27.295Z,1.50
2018-12-14T21:31:01.853Z,1.50
2018-12-14T21:33:52.911Z,1.50
2018-12-14T21:36:35.249Z,1.50
2018-12-14T21:39:09.502Z,1.50
2018-12-14T21:50:55.371Z,1.50
2018-12-14T21:53:27.355Z,1.50
2018-12-14T21:55:59.485Z,1.50
2018-12-14T21:58:40.367Z,1.50
2018-12-14T22:01:21.253Z,1.40
2018-12-14T22:04:02.282Z,1.40
2018-12-14T22:06:43.524Z,1.30
2018-12-14T22:09:15.794Z,1.30
2018-12-14T22:11:48.722Z,1.30
2018-12-14T22:14:23.080Z,1.30
2018-12-14T22:16:53.938Z,1.30
2018-12-14T22:19:36.730Z,1.30
2018-12-14T22:22:08.888Z,1.30
2018-12-14T22:24:41.823Z,1.10
2018-12-14T22:27:11.362Z,1.10
2018-12-14T22:32:53.294Z,1.10
2018-12-14T22:35:25.150Z,1.10
2018-12-14T22:37:55.435Z,1.10
2018-12-14T22:40:41.872Z,1.10
2018-12-14T22:43:14.007Z,1.10
2018-12-14T22:45:48.187Z,1.20
2018-12-14T22:51:18.344Z,1.10
2018-12-14T22:53:58.990Z,1.10
2018-12-14T22:56:40.038Z,1.10
2018-12-14T22:59:10.318Z,1.00
2018-12-14T23:01:57.066Z,1.10
2018-12-14T23:04:30.875Z,1.10
2018-12-14T23:07:07.261Z,1.10
2018-12-14T23:09:38.798Z,1.10
2018-12-14T23:12:19.843Z,1.00
2018-12-14T23:14:51.928Z,1.00
2018-12-14T23:17:27.205Z,0.90
2018-12-14T23:20:08.514Z,0.90
2018-12-14T23:22:43.936Z,0.90
2018-12-14T23:25:15.582Z,0.90
2018-12-14T23:27:49.372Z,0.90
2018-12-14T23:30:31.006Z,0.90
2018-12-14T23:33:07.019Z,0.90
2018-12-14T23:35:38.643Z,0.90
2018-12-14T23:38:08.948Z,1.00
2018-12-14T23:40:49.722Z,1.00
2018-12-14T23:43:19.812Z,0.90
2018-12-14T23:45:51.115Z,0.90
2018-12-14T23:48:29.079Z,0.90
2018-12-14T23:51:03.811Z,0.90
2018-12-14T23:53:44.575Z,0.80
2018-12-14T23:56:16.489Z,0.90
2018-12-14T23:58:46.840Z,0.80
